Time;durP1;ratioP1;P1;durP2;ratioP2;P2;SDS_P1;SDS_P2;PMS_P1;PMS_P2;Temp;Humidity;BMP_temperature;BMP_pressure;BME280_temperature;BME280_humidity;BME280_pressure;Samples;Min_cycle;Max_cycle;Signal;HPM_P1;HPM_P2
2021/09/04 00:01:46;;;;;;;25.70;21.47;;;16.50;99.90;;;;;;5057719;28;20612;-73
2021/09/04 00:04:12;;;;;;;23.70;20.93;;;16.50;99.90;;;;;;5061491;28;20175;-73
2021/09/04 00:06:37;;;;;;;27.80;21.00;;;16.50;99.90;;;;;;5061448;28;20181;-73
2021/09/04 00:09:03;;;;;;;26.17;20.40;;;16.50;99.90;;;;;;5041510;28;20194;-74
2021/09/04 00:11:30;;;;;;;24.88;22.27;;;16.40;99.90;;;;;;5056117;28;20912;-75
2021/09/04 00:13:55;;;;;;;22.63;19.00;;;16.40;99.90;;;;;;5039203;28;20178;-74
2021/09/04 00:16:21;;;;;;;23.43;20.23;;;16.40;99.90;;;;;;5040126;28;20499;-74
2021/09/04 00:18:46;;;;;;;23.53;21.03;;;16.40;99.90;;;;;;5057997;28;20206;-73
2021/09/04 00:21:12;;;;;;;26.20;20.30;;;16.30;99.90;;;;;;5056222;28;20552;-72
2021/09/04 00:23:37;;;;;;;25.17;19.23;;;16.30;99.90;;;;;;5055954;28;20643;-72
2021/09/04 00:26:03;;;;;;;22.50;19.60;;;16.30;99.90;;;;;;5055980;28;20197;-72
2021/09/04 00:28:28;;;;;;;21.03;18.47;;;16.30;99.90;;;;;;5055437;28;20170;-72
2021/09/04 00:30:54;;;;;;;23.47;19.07;;;16.40;99.90;;;;;;5055997;28;20214;-72
2021/09/04 00:33:19;;;;;;;23.43;19.03;;;16.40;99.90;;;;;;5055677;28;20291;-72
2021/09/04 00:35:45;;;;;;;24.67;19.50;;;16.40;99.90;;;;;;5055727;28;20204;-72
2021/09/04 00:38:10;;;;;;;27.20;20.33;;;16.40;99.90;;;;;;5056505;28;20170;-73
2021/09/04 00:40:36;;;;;;;20.70;18.47;;;16.30;99.90;;;;;;5055399;28;20202;-72
2021/09/04 00:43:02;;;;;;;20.93;18.10;;;16.30;99.90;;;;;;5055680;28;20197;-72
2021/09/04 00:45:27;;;;;;;23.70;20.43;;;16.30;99.90;;;;;;5035832;28;20207;-72
2021/09/04 00:47:59;;;;;;;21.60;19.03;;;16.30;99.90;;;;;;5038070;28;20204;-73
2021/09/04 00:50:26;;;;;;;24.10;18.50;;;16.30;99.90;;;;;;5054736;28;20257;-73
2021/09/04 00:52:52;;;;;;;26.13;20.53;;;16.40;99.90;;;;;;5055525;28;20421;-72
2021/09/04 00:55:18;;;;;;;22.47;18.97;;;16.30;99.90;;;;;;5055367;28;20766;-74
2021/09/04 00:57:44;;;;;;;22.53;19.17;;;16.40;99.90;;;;;;5055382;28;20808;-73
2021/09/04 01:00:10;;;;;;;21.83;19.47;;;16.40;99.90;;;;;;5055727;28;20494;-73
2021/09/04 01:02:35;;;;;;;20.03;17.70;;;16.40;99.90;;;;;;5054982;28;20603;-72
2021/09/04 01:05:01;;;;;;;21.23;18.93;;;16.40;99.90;;;;;;5054946;28;20448;-72
2021/09/04 01:07:27;;;;;;;20.97;17.90;;;16.40;99.90;;;;;;5055319;28;20184;-72
2021/09/04 01:09:52;;;;;;;23.57;20.00;;;16.40;99.90;;;;;;5055579;28;20206;-72
2021/09/04 01:12:18;;;;;;;21.03;18.83;;;16.40;99.90;;;;;;5055874;28;20436;-72
2021/09/04 01:14:44;;;;;;;21.20;19.00;;;16.40;99.90;;;;;;5056379;28;20529;-72
2021/09/04 01:17:09;;;;;;;24.50;20.23;;;16.40;99.90;;;;;;5056262;28;20228;-73
2021/09/04 01:19:35;;;;;;;21.20;18.10;;;16.40;99.90;;;;;;5056353;28;20260;-72
2021/09/04 01:22:00;;;;;;;23.90;20.17;;;16.40;99.90;;;;;;5055209;28;20522;-72
2021/09/04 01:24:26;;;;;;;22.67;19.07;;;16.30;99.90;;;;;;5037400;28;20277;-72
2021/09/04 01:26:51;;;;;;;24.10;20.60;;;16.30;99.90;;;;;;5055231;28;20178;-73
2021/09/04 01:29:17;;;;;;;24.20;19.53;;;16.20;99.90;;;;;;5054563;28;20197;-72
2021/09/04 01:31:43;;;;;;;24.83;21.27;;;16.20;99.90;;;;;;5054358;28;20197;-72
2021/09/04 01:34:09;;;;;;;25.27;20.43;;;16.20;99.90;;;;;;5054731;28;20436;-72
2021/09/04 01:36:37;;;;;;;27.47;21.30;;;16.20;99.90;;;;;;5054557;28;20178;-72
2021/09/04 01:39:04;;;;;;;26.43;19.90;;;16.10;99.90;;;;;;5053700;28;20540;-72
2021/09/04 01:41:30;;;;;;;24.80;19.53;;;16.20;99.90;;;;;;5055155;28;20433;-72
2021/09/04 01:43:56;;;;;;;22.30;18.90;;;16.20;99.90;;;;;;5036752;28;20789;-73
2021/09/04 01:46:21;;;;;;;23.40;19.10;;;16.20;99.90;;;;;;5057454;28;20521;-73
2021/09/04 01:48:47;;;;;;;25.53;21.07;;;16.20;99.90;;;;;;5056428;28;20409;-72
2021/09/04 01:51:13;;;;;;;22.80;20.30;;;16.20;99.90;;;;;;5056293;28;20190;-72
2021/09/04 01:53:40;;;;;;;27.57;21.33;;;16.00;99.90;;;;;;5055628;28;20401;-71
2021/09/04 01:56:05;;;;;;;24.00;19.53;;;16.00;99.90;;;;;;5055062;28;20526;-72
2021/09/04 01:58:31;;;;;;;23.53;21.00;;;16.00;99.90;;;;;;5054257;28;20432;-72
2021/09/04 02:00:56;;;;;;;25.73;21.00;;;16.00;99.90;;;;;;5054761;28;20299;-72
2021/09/04 02:03:22;;;;;;;25.80;21.03;;;16.00;99.90;;;;;;5054203;28;20475;-72
2021/09/04 02:05:47;;;;;;;27.37;22.17;;;16.00;99.90;;;;;;5035917;28;20690;-73
2021/09/04 02:08:13;;;;;;;26.93;21.07;;;16.00;99.90;;;;;;5054267;28;20670;-71
2021/09/04 02:10:38;;;;;;;22.87;20.33;;;16.00;99.90;;;;;;5035966;28;20651;-72
2021/09/04 02:13:04;;;;;;;22.03;19.37;;;16.00;99.90;;;;;;5053637;28;20210;-72
2021/09/04 02:15:29;;;;;;;25.17;21.80;;;16.00;99.90;;;;;;5054020;28;20170;-72
2021/09/04 02:17:55;;;;;;;23.50;20.77;;;15.90;99.90;;;;;;5053093;28;20186;-72
2021/09/04 02:20:20;;;;;;;24.57;21.27;;;15.90;99.90;;;;;;5036008;28;20203;-72
2021/09/04 02:22:46;;;;;;;27.87;22.10;;;15.90;99.90;;;;;;5054261;28;20264;-72
2021/09/04 02:25:12;;;;;;;25.23;22.00;;;15.80;99.90;;;;;;5036613;28;20209;-73
2021/09/04 02:27:38;;;;;;;27.87;21.30;;;15.80;99.90;;;;;;5053608;28;20174;-74
2021/09/04 02:30:05;;;;;;;24.50;20.77;;;15.80;99.90;;;;;;5053524;28;20194;-72
2021/09/04 02:32:31;;;;;;;30.23;22.10;;;15.80;99.90;;;;;;5054050;28;20405;-71
2021/09/04 02:34:57;;;;;;;28.47;22.07;;;15.80;99.90;;;;;;5053483;28;20405;-72
2021/09/04 02:37:22;;;;;;;26.77;22.07;;;15.70;99.90;;;;;;5035339;28;20417;-72
2021/09/04 02:39:49;;;;;;;31.90;22.03;;;15.70;99.90;;;;;;5053275;28;20210;-72
2021/09/04 02:42:15;;;;;;;28.50;25.00;;;15.70;99.90;;;;;;5052505;28;20477;-72
2021/09/04 02:44:41;;;;;;;30.20;25.47;;;15.70;99.90;;;;;;5053582;28;20558;-72
2021/09/04 02:47:07;;;;;;;26.10;22.00;;;15.70;99.90;;;;;;5053689;28;20527;-72
2021/09/04 02:49:33;;;;;;;29.70;24.37;;;15.60;99.90;;;;;;5053234;28;20458;-72
2021/09/04 02:51:58;;;;;;;28.00;22.33;;;15.60;99.90;;;;;;5053803;28;20265;-73
2021/09/04 02:54:24;;;;;;;28.20;23.80;;;15.50;99.90;;;;;;5054328;28;20204;-73
2021/09/04 02:56:49;;;;;;;29.53;22.53;;;15.40;99.90;;;;;;5054856;28;20166;-72
2021/09/04 02:59:15;;;;;;;24.23;20.43;;;15.40;99.90;;;;;;5053819;28;20604;-73
2021/09/04 03:01:40;;;;;;;25.13;19.73;;;15.40;99.90;;;;;;5053840;28;20241;-72
2021/09/04 03:04:06;;;;;;;23.20;19.17;;;15.40;99.90;;;;;;5053505;28;20184;-72
2021/09/04 03:06:35;;;;;;;24.40;18.77;;;15.40;99.90;;;;;;5053430;28;20632;-73
2021/09/04 03:09:01;;;;;;;19.97;17.03;;;15.40;99.90;;;;;;5052435;28;20555;-72
2021/09/04 03:11:27;;;;;;;26.73;19.10;;;15.40;99.90;;;;;;5052926;28;20456;-73
2021/09/04 03:13:52;;;;;;;23.97;18.23;;;15.40;99.90;;;;;;5053526;28;20150;-72
2021/09/04 03:16:18;;;;;;;22.13;17.63;;;15.50;99.90;;;;;;5052934;28;20420;-72
2021/09/04 03:18:44;;;;;;;22.13;19.57;;;15.50;99.90;;;;;;5053349;28;20316;-72
2021/09/04 03:21:10;;;;;;;22.90;19.07;;;15.50;99.90;;;;;;5053297;28;20194;-73
2021/09/04 03:23:35;;;;;;;25.20;20.93;;;15.50;99.90;;;;;;5053250;28;20413;-72
2021/09/04 03:26:01;;;;;;;27.83;22.70;;;15.50;99.90;;;;;;5053161;28;20421;-72
2021/09/04 03:28:26;;;;;;;27.87;20.73;;;15.50;99.90;;;;;;5052966;28;20185;-72
2021/09/04 03:30:52;;;;;;;24.10;21.13;;;15.50;99.90;;;;;;5052900;28;20210;-73
2021/09/04 03:33:18;;;;;;;26.70;22.47;;;15.50;99.90;;;;;;5052890;28;20591;-74
2021/09/04 03:35:43;;;;;;;29.70;23.00;;;15.50;99.90;;;;;;5053346;28;20189;-74
2021/09/04 03:38:09;;;;;;;28.00;22.73;;;15.50;99.90;;;;;;5055285;28;20216;-72
2021/09/04 03:40:35;;;;;;;28.40;22.77;;;15.30;99.90;;;;;;5055117;28;20577;-73
2021/09/04 03:43:00;;;;;;;34.47;25.50;;;15.20;99.90;;;;;;5052955;28;20419;-73
2021/09/04 03:45:26;;;;;;;30.07;24.37;;;15.10;99.90;;;;;;5052976;28;20185;-73
2021/09/04 03:47:51;;;;;;;34.17;25.63;;;15.10;99.90;;;;;;5052456;28;20205;-73
2021/09/04 03:50:17;;;;;;;36.57;25.73;;;15.10;99.90;;;;;;5034314;28;20202;-74
2021/09/04 03:52:42;;;;;;;33.77;26.60;;;15.10;99.90;;;;;;5034568;28;20505;-71
2021/09/04 03:55:08;;;;;;;39.07;28.57;;;15.20;99.90;;;;;;5035040;28;20413;-72
2021/09/04 03:57:34;;;;;;;35.60;27.63;;;15.30;99.90;;;;;;5052572;28;20184;-72
2021/09/04 03:59:59;;;;;;;41.80;30.27;;;15.30;99.90;;;;;;5034546;28;20178;-72
2021/09/04 04:02:25;;;;;;;39.83;28.10;;;15.30;99.90;;;;;;5053816;28;20174;-72
2021/09/04 04:04:50;;;;;;;42.13;29.97;;;15.40;99.90;;;;;;5056079;28;20179;-72
2021/09/04 04:07:16;;;;;;;38.23;27.87;;;15.50;99.90;;;;;;5056001;28;20178;-71
2021/09/04 04:09:41;;;;;;;40.30;28.77;;;15.50;99.90;;;;;;5055910;28;20209;-72
2021/09/04 04:12:09;;;;;;;39.23;29.83;;;15.60;99.90;;;;;;5055704;28;20206;-73
2021/09/04 04:14:34;;;;;;;37.17;29.40;;;15.60;99.90;;;;;;5056516;28;20615;-72
2021/09/04 04:17:01;;;;;;;38.83;27.50;;;15.60;99.90;;;;;;5056065;28;20413;-72
2021/09/04 04:19:27;;;;;;;39.30;30.37;;;15.70;99.90;;;;;;5055608;28;20312;-72
2021/09/04 04:21:53;;;;;;;39.50;27.93;;;15.70;99.90;;;;;;5055894;28;20898;-72
2021/09/04 04:24:18;;;;;;;35.77;27.57;;;15.80;99.90;;;;;;5055788;28;20196;-72
2021/09/04 04:26:44;;;;;;;33.90;27.00;;;15.80;99.90;;;;;;5056057;28;20227;-72
2021/09/04 04:29:09;;;;;;;36.27;28.10;;;15.80;99.90;;;;;;5055139;28;20197;-72
2021/09/04 04:31:38;;;;;;;38.33;27.07;;;15.70;99.90;;;;;;5055652;28;20246;-71
2021/09/04 04:34:03;;;;;;;39.47;28.77;;;15.80;99.90;;;;;;5055646;28;20162;-72
2021/09/04 04:36:29;;;;;;;37.67;27.50;;;15.80;99.90;;;;;;5056636;28;20519;-73
2021/09/04 04:38:54;;;;;;;36.93;28.80;;;15.80;99.90;;;;;;5056390;28;20171;-72
2021/09/04 04:41:20;;;;;;;43.23;29.33;;;15.80;99.90;;;;;;5055439;28;20218;-73
2021/09/04 04:43:45;;;;;;;40.40;28.43;;;15.90;99.90;;;;;;5055101;28;20253;-73
2021/09/04 04:46:11;;;;;;;39.27;28.77;;;15.80;99.90;;;;;;5037665;28;20216;-73
2021/09/04 04:48:38;;;;;;;37.80;28.03;;;15.80;99.90;;;;;;5055611;28;20174;-72
2021/09/04 04:51:04;;;;;;;36.80;28.17;;;15.80;99.90;;;;;;5055369;28;20737;-72
2021/09/04 04:53:29;;;;;;;38.10;28.20;;;15.80;99.90;;;;;;5055547;28;20499;-72
2021/09/04 04:55:55;;;;;;;35.67;28.80;;;15.80;99.90;;;;;;5054894;28;20960;-72
2021/09/04 04:58:20;;;;;;;39.90;27.27;;;15.90;99.90;;;;;;5055328;28;20209;-72
2021/09/04 05:00:46;;;;;;;32.90;27.50;;;15.90;99.90;;;;;;5055527;28;20694;-72
2021/09/04 05:03:11;;;;;;;37.10;27.50;;;15.90;99.90;;;;;;5055234;28;20229;-72
2021/09/04 05:05:37;;;;;;;34.93;27.60;;;15.90;99.90;;;;;;5055025;28;20770;-73
2021/09/04 05:08:03;;;;;;;33.20;26.03;;;15.90;99.90;;;;;;5054964;28;20542;-73
2021/09/04 05:10:29;;;;;;;37.37;27.90;;;16.00;99.90;;;;;;5054755;28;20205;-72
2021/09/04 05:12:54;;;;;;;38.17;30.40;;;15.90;99.90;;;;;;5055014;28;20420;-71
2021/09/04 05:15:20;;;;;;;42.87;33.70;;;15.80;99.90;;;;;;5053639;28;20503;-72
2021/09/04 05:17:46;;;;;;;41.50;30.93;;;15.80;99.90;;;;;;5037079;28;20170;-72
2021/09/04 05:20:12;;;;;;;42.70;30.50;;;15.80;99.90;;;;;;5054757;28;20425;-72
2021/09/04 05:22:40;;;;;;;41.47;30.30;;;15.80;99.90;;;;;;5054610;28;20170;-72
2021/09/04 05:25:06;;;;;;;43.20;30.80;;;15.80;99.90;;;;;;5054663;28;20400;-72
2021/09/04 05:27:31;;;;;;;47.40;30.70;;;15.70;99.90;;;;;;5054541;28;20490;-72
2021/09/04 05:29:57;;;;;;;42.00;31.40;;;15.70;99.90;;;;;;5054176;28;20794;-71
2021/09/04 05:32:23;;;;;;;38.60;28.23;;;15.70;99.90;;;;;;5054684;28;20170;-73
2021/09/04 05:34:50;;;;;;;36.47;28.47;;;15.80;99.90;;;;;;5046821;28;20659;-73
2021/09/04 05:37:16;;;;;;;40.07;30.03;;;15.80;99.90;;;;;;5046608;28;20436;-72
2021/09/04 05:39:41;;;;;;;39.40;27.30;;;15.70;99.90;;;;;;5054700;28;20921;-73
2021/09/04 05:42:07;;;;;;;39.00;28.47;;;15.60;99.90;;;;;;5054445;28;20428;-73
2021/09/04 05:44:33;;;;;;;35.43;26.30;;;15.70;99.90;;;;;;5054948;28;20174;-73
2021/09/04 05:46:58;;;;;;;40.47;27.80;;;15.80;99.90;;;;;;5054606;28;20166;-73
2021/09/04 05:49:23;;;;;;;37.53;27.13;;;15.70;99.90;;;;;;5054387;28;20245;-73
2021/09/04 05:51:49;;;;;;;36.20;27.07;;;15.60;99.90;;;;;;5055149;28;20603;-74
2021/09/04 05:54:15;;;;;;;32.70;26.80;;;15.50;99.90;;;;;;5054969;28;20194;-73
2021/09/04 05:56:40;;;;;;;35.30;26.70;;;15.50;99.90;;;;;;5054356;28;20201;-73
2021/09/04 05:59:06;;;;;;;33.23;25.63;;;15.50;99.90;;;;;;5053578;28;20216;-73
2021/09/04 06:01:31;;;;;;;35.03;26.43;;;15.60;99.90;;;;;;5045184;28;20202;-72
2021/09/04 06:03:57;;;;;;;33.27;25.90;;;15.60;99.90;;;;;;5054027;28;20166;-72
2021/09/04 06:06:22;;;;;;;34.53;25.63;;;15.60;99.90;;;;;;5053998;28;20642;-72
2021/09/04 06:08:48;;;;;;;32.40;25.67;;;15.70;99.90;;;;;;5053669;28;20170;-72
2021/09/04 06:11:13;;;;;;;34.07;25.83;;;15.80;99.90;;;;;;5054002;28;20210;-74
2021/09/04 06:13:39;;;;;;;33.90;25.57;;;15.80;99.90;;;;;;5053692;28;20620;-73
2021/09/04 06:16:04;;;;;;;36.63;26.87;;;15.80;99.90;;;;;;5053907;28;20539;-72
2021/09/04 06:18:30;;;;;;;36.90;26.10;;;15.80;99.90;;;;;;5035685;28;20167;-73
2021/09/04 06:20:55;;;;;;;35.83;26.63;;;15.70;99.90;;;;;;5053080;28;20320;-71
2021/09/04 06:23:21;;;;;;;35.03;25.20;;;15.60;99.90;;;;;;5053745;28;20602;-72
2021/09/04 06:25:46;;;;;;;35.40;26.07;;;15.60;99.90;;;;;;5052779;28;20174;-73
2021/09/04 06:28:12;;;;;;;35.77;28.50;;;15.70;99.90;;;;;;5053051;28;20407;-72
2021/09/04 06:30:37;;;;;;;36.90;26.20;;;15.80;99.90;;;;;;5053232;28;20297;-72
2021/09/04 06:33:03;;;;;;;38.87;26.43;;;15.90;99.90;;;;;;5053276;28;20257;-74
2021/09/04 06:35:28;;;;;;;32.33;24.50;;;15.90;99.90;;;;;;5053713;28;20174;-72
2021/09/04 06:37:54;;;;;;;29.30;24.00;;;16.00;99.90;;;;;;5047249;28;20245;-72
2021/09/04 06:40:20;;;;;;;34.10;25.10;;;16.00;99.90;;;;;;5032690;28;20763;-72
2021/09/04 06:42:45;;;;;;;31.47;23.60;;;16.10;99.90;;;;;;5046629;28;20177;-72
2021/09/04 06:45:11;;;;;;;31.70;22.30;;;16.10;99.90;;;;;;5044181;28;20202;-73
2021/09/04 06:47:36;;;;;;;32.27;24.57;;;16.10;99.90;;;;;;5032865;28;20190;-72
2021/09/04 06:50:03;;;;;;;33.93;24.97;;;16.20;99.90;;;;;;5031693;28;20202;-72
2021/09/04 06:52:29;;;;;;;29.67;23.50;;;16.20;99.90;;;;;;5033464;28;20190;-72
2021/09/04 06:54:55;;;;;;;35.00;25.80;;;16.30;99.90;;;;;;5034931;28;20460;-72
2021/09/04 06:57:20;;;;;;;32.30;23.50;;;16.20;99.90;;;;;;5053414;28;20417;-73
2021/09/04 06:59:46;;;;;;;30.30;23.60;;;16.10;99.90;;;;;;5035133;28;20190;-72
2021/09/04 07:02:11;;;;;;;31.30;23.13;;;16.20;99.90;;;;;;5053214;28;20177;-74
2021/09/04 07:04:37;;;;;;;30.83;22.87;;;16.20;99.90;;;;;;5051408;28;20179;-72
2021/09/04 07:07:04;;;;;;;34.23;24.13;;;16.30;99.90;;;;;;5034809;28;20185;-71
2021/09/04 07:09:31;;;;;;;32.80;25.10;;;16.30;99.90;;;;;;5054205;28;20190;-72
2021/09/04 07:11:56;;;;;;;33.33;24.73;;;16.30;99.90;;;;;;5031845;28;20471;-72
2021/09/04 07:14:22;;;;;;;27.07;21.33;;;16.30;99.90;;;;;;5016940;28;20452;-76
2021/09/04 07:16:47;;;;;;;32.77;23.03;;;16.30;99.90;;;;;;5051632;28;20213;-73
2021/09/04 07:19:13;;;;;;;32.50;23.20;;;16.30;99.90;;;;;;5051149;28;20745;-72
2021/09/04 07:21:39;;;;;;;28.60;23.00;;;16.30;99.90;;;;;;5049639;28;20198;-73
2021/09/04 07:24:05;;;;;;;29.97;22.93;;;16.40;99.90;;;;;;5050761;28;20214;-74
2021/09/04 07:26:31;;;;;;;30.50;23.40;;;16.40;99.90;;;;;;5049560;28;20456;-74
2021/09/04 07:28:56;;;;;;;30.50;22.87;;;16.50;99.90;;;;;;5051859;28;20474;-72
2021/09/04 07:31:22;;;;;;;31.80;22.97;;;16.40;99.90;;;;;;5052036;28;20497;-73
2021/09/04 07:33:47;;;;;;;29.87;22.23;;;16.50;99.90;;;;;;5053299;28;20563;-74
2021/09/04 07:36:13;;;;;;;29.00;23.30;;;16.50;99.90;;;;;;5043767;28;20740;-74
2021/09/04 07:38:39;;;;;;;27.83;21.00;;;16.50;99.90;;;;;;5053333;28;20209;-73
2021/09/04 07:41:04;;;;;;;31.43;22.07;;;16.40;99.90;;;;;;5046335;28;20210;-73
2021/09/04 07:43:30;;;;;;;26.10;20.13;;;16.50;99.90;;;;;;5045064;28;20274;-73
2021/09/04 07:45:56;;;;;;;28.33;21.40;;;16.50;99.90;;;;;;5053795;28;20225;-72
2021/09/04 07:48:21;;;;;;;25.67;20.60;;;16.60;99.90;;;;;;5053143;28;20210;-72
2021/09/04 07:50:47;;;;;;;29.30;22.40;;;16.70;99.90;;;;;;5053791;28;20216;-72
2021/09/04 07:53:16;;;;;;;28.97;21.23;;;16.70;99.90;;;;;;5054243;28;20198;-73
2021/09/04 07:55:43;;;;;;;25.43;19.87;;;16.70;99.90;;;;;;5054668;28;20197;-73
2021/09/04 07:58:08;;;;;;;27.57;19.83;;;16.70;99.90;;;;;;5054673;28;20436;-74
2021/09/04 08:00:34;;;;;;;24.23;19.33;;;16.70;99.90;;;;;;5054939;28;20202;-73
2021/09/04 08:03:00;;;;;;;26.37;19.27;;;16.80;99.90;;;;;;5055252;28;20241;-74
2021/09/04 08:05:25;;;;;;;25.10;19.40;;;16.70;99.90;;;;;;5044872;28;20219;-74
2021/09/04 08:07:51;;;;;;;28.03;19.13;;;16.80;99.90;;;;;;5054039;28;20210;-73
2021/09/04 08:10:17;;;;;;;23.03;17.97;;;16.90;99.90;;;;;;5053628;28;20220;-74
2021/09/04 08:12:42;;;;;;;24.17;18.70;;;17.00;99.90;;;;;;5036234;28;20563;-73
2021/09/04 08:15:10;;;;;;;22.13;16.80;;;17.00;99.90;;;;;;5035579;28;20597;-76
2021/09/04 08:17:39;;;;;;;19.50;16.00;;;17.00;99.90;;;;;;5053978;28;20248;-73
2021/09/04 08:20:10;;;;;;;20.33;17.13;;;17.00;99.90;;;;;;5034754;28;20514;-75
2021/09/04 08:22:36;;;;;;;20.77;18.03;;;17.10;99.90;;;;;;5036256;28;20486;-74
2021/09/04 08:25:03;;;;;;;21.13;17.03;;;17.10;99.90;;;;;;5035810;28;20501;-73
2021/09/04 08:27:28;;;;;;;22.65;20.20;;;17.20;99.90;;;;;;5043304;28;20780;-73
2021/09/04 08:29:58;;;;;;;19.23;16.67;;;17.20;99.90;;;;;;5032653;28;20339;-73
2021/09/04 08:32:23;;;;;;;22.73;17.20;;;17.20;99.90;;;;;;5031821;28;20297;-74
2021/09/04 08:34:49;;;;;;;22.43;18.10;;;17.30;99.90;;;;;;5033698;28;20465;-73
2021/09/04 08:37:14;;;;;;;21.13;17.47;;;17.40;99.90;;;;;;5041994;28;20210;-74
2021/09/04 08:39:40;;;;;;;18.00;16.20;;;17.30;99.90;;;;;;5053484;28;20862;-74
2021/09/04 08:42:06;;;;;;;21.50;17.47;;;17.30;99.90;;;;;;5045753;28;20289;-73
2021/09/04 08:44:31;;;;;;;19.43;16.27;;;17.20;99.90;;;;;;5049870;28;20725;-75
2021/09/04 08:46:58;;;;;;;19.67;16.87;;;17.30;99.90;;;;;;5034112;28;20215;-74
2021/09/04 08:49:25;;;;;;;18.83;15.43;;;17.30;99.90;;;;;;5039752;28;20574;-76
2021/09/04 08:51:51;;;;;;;18.67;16.40;;;17.30;99.90;;;;;;5031441;28;20826;-73
2021/09/04 08:54:18;;;;;;;19.37;16.47;;;17.50;99.90;;;;;;5035327;28;20527;-75
2021/09/04 08:56:43;;;;;;;18.67;15.43;;;17.60;99.90;;;;;;5036746;28;20714;-74
2021/09/04 08:59:09;;;;;;;15.87;14.17;;;17.60;99.90;;;;;;5052731;28;20448;-73
2021/09/04 09:01:44;;;;;;;18.10;15.47;;;17.60;99.90;;;;;;5054983;28;20205;-73
2021/09/04 09:04:14;;;;;;;20.93;16.90;;;17.50;99.90;;;;;;5052679;28;20236;-73
2021/09/04 09:06:40;;;;;;;17.90;15.73;;;17.40;99.90;;;;;;5053518;28;20517;-74
2021/09/04 09:09:16;;;;;;;19.07;16.60;;;17.40;99.90;;;;;;5051866;28;20547;-73
2021/09/04 09:11:42;;;;;;;17.37;15.03;;;17.40;99.90;;;;;;5034928;28;20279;-76
2021/09/04 09:14:08;;;;;;;18.47;15.27;;;17.40;99.90;;;;;;5033488;28;20449;-73
2021/09/04 09:16:34;;;;;;;17.87;15.97;;;17.40;99.90;;;;;;5056377;28;20193;-73
2021/09/04 09:19:03;;;;;;;18.43;16.43;;;17.50;99.90;;;;;;5054347;28;20170;-73
2021/09/04 09:21:31;;;;;;;20.07;15.60;;;17.50;99.90;;;;;;5059464;28;20440;-73
2021/09/04 09:24:10;;;;;;;17.20;14.53;;;17.50;99.90;;;;;;5063959;28;20442;-73
2021/09/04 09:26:52;;;;;;;18.30;14.47;;;17.60;99.90;;;;;;4992996;28;20463;-74
2021/09/04 09:29:23;;;;;;;20.23;15.43;;;17.50;99.90;;;;;;5043700;28;20429;-74
2021/09/04 09:31:49;;;;;;;19.57;16.40;;;17.40;99.90;;;;;;5046325;28;20903;-73
2021/09/04 09:34:16;;;;;;;19.27;15.83;;;17.40;99.90;;;;;;5057553;28;20412;-73
2021/09/04 09:36:58;;;;;;;17.93;14.73;;;17.50;99.90;;;;;;5041795;28;20767;-72
2021/09/04 09:39:32;;;;;;;19.13;15.03;;;17.50;99.90;;;;;;5044049;28;20431;-73
2021/09/04 09:41:58;;;;;;;18.30;15.37;;;17.40;99.90;;;;;;5048256;28;20447;-73
2021/09/04 09:44:29;;;;;;;16.67;14.83;;;17.30;99.90;;;;;;5051610;28;20421;-73
2021/09/04 09:46:58;;;;;;;18.57;15.17;;;17.30;99.90;;;;;;5065352;28;20415;-73
2021/09/04 09:49:28;;;;;;;18.87;16.60;;;17.30;99.90;;;;;;5019653;28;20532;-73
2021/09/04 09:52:03;;;;;;;19.23;15.43;;;17.30;99.90;;;;;;5029568;28;20444;-72
2021/09/04 09:54:31;;;;;;;17.45;15.65;;;17.30;99.90;;;;;;5036471;28;20484;-74
2021/09/04 09:56:58;;;;;;;16.23;14.53;;;17.40;99.90;;;;;;5056319;28;20923;-72
2021/09/04 09:59:28;;;;;;;19.40;16.60;;;17.50;99.90;;;;;;5029865;28;20452;-73
2021/09/04 10:01:55;;;;;;;18.30;15.20;;;17.70;99.90;;;;;;5045173;28;20456;-72
2021/09/04 10:04:26;;;;;;;19.30;16.80;;;17.80;99.90;;;;;;5049987;28;20900;-74
2021/09/04 10:06:52;;;;;;;17.50;15.50;;;18.00;99.90;;;;;;5051985;28;20511;-72
2021/09/04 10:09:18;;;;;;;19.33;17.33;;;18.10;99.90;;;;;;5047510;28;20531;-72
2021/09/04 10:11:44;;;;;;;21.63;16.83;;;18.20;99.90;;;;;;5045110;28;20692;-72
2021/09/04 10:14:09;;;;;;;17.53;15.73;;;18.30;99.90;;;;;;5028532;28;20504;-72
2021/09/04 10:16:36;;;;;;;18.00;15.67;;;18.40;99.90;;;;;;5032021;28;20482;-73
2021/09/04 10:19:02;;;;;;;19.07;15.63;;;18.50;99.90;;;;;;5045349;28;20174;-73
2021/09/04 10:21:37;;;;;;;17.23;14.93;;;18.60;99.90;;;;;;5055320;28;20945;-72
2021/09/04 10:24:03;;;;;;;16.63;14.50;;;18.60;99.90;;;;;;5049849;28;20416;-72
2021/09/04 10:26:31;;;;;;;18.63;15.60;;;18.80;99.90;;;;;;5062794;28;20423;-73
2021/09/04 10:29:08;;;;;;;16.07;14.33;;;18.80;99.90;;;;;;5070919;28;20419;-71
2021/09/04 10:32:01;;;;;;;18.03;15.60;;;18.90;99.90;;;;;;5070796;28;20480;-72
2021/09/04 10:34:29;;;;;;;19.13;17.13;;;19.00;99.90;;;;;;5059200;28;20466;-71
2021/09/04 10:37:13;;;;;;;18.50;16.60;;;19.10;99.90;;;;;;5050118;28;20416;-73
2021/09/04 10:39:52;;;;;;;17.80;15.80;;;19.10;99.90;;;;;;5055527;28;20786;-72
2021/09/04 10:42:25;;;;;;;15.53;13.93;;;19.20;99.90;;;;;;5068761;28;20465;-72
2021/09/04 10:45:09;;;;;;;15.37;13.77;;;19.30;99.90;;;;;;5065336;28;21033;-71
2021/09/04 10:47:45;;;;;;;15.77;13.80;;;19.50;99.90;;;;;;5069945;28;20415;-73
2021/09/04 10:50:22;;;;;;;17.20;15.10;;;19.50;99.90;;;;;;5059405;28;21244;-73
2021/09/04 10:52:54;;;;;;;16.53;14.03;;;19.60;99.90;;;;;;5062971;28;20412;-72
2021/09/04 10:55:40;;;;;;;20.07;15.10;;;19.70;99.90;;;;;;5053068;28;20412;-72
2021/09/04 10:58:07;;;;;;;17.40;15.40;;;19.60;99.90;;;;;;5060280;28;20416;-71
2021/09/04 11:00:44;;;;;;;16.97;15.17;;;19.70;99.90;;;;;;5049392;28;20454;-72
2021/09/04 11:03:19;;;;;;;19.13;16.57;;;19.80;99.90;;;;;;5049574;28;20539;-72
2021/09/04 11:05:53;;;;;;;18.63;15.77;;;19.80;99.90;;;;;;5049093;28;20519;-72
2021/09/04 11:08:19;;;;;;;20.03;17.20;;;19.60;99.90;;;;;;5061884;28;20419;-71
2021/09/04 11:10:49;;;;;;;17.20;15.40;;;19.30;99.90;;;;;;5055648;28;20464;-72
2021/09/04 11:13:17;;;;;;;17.00;14.77;;;19.40;99.90;;;;;;5054323;28;20204;-72
2021/09/04 11:15:45;;;;;;;16.13;14.03;;;19.50;99.90;;;;;;5044424;28;20427;-73
2021/09/04 11:18:17;;;;;;;20.93;14.63;;;19.60;99.90;;;;;;5055016;28;20519;-74
2021/09/04 11:20:48;;;;;;;15.30;13.60;;;19.80;99.90;;;;;;5063237;28;20456;-73
2021/09/04 11:23:28;;;;;;;20.13;15.90;;;19.80;99.90;;;;;;5047077;28;20417;-72
2021/09/04 11:25:54;;;;;;;17.40;14.93;;;19.80;99.90;;;;;;5055084;28;20424;-72
2021/09/04 11:28:30;;;;;;;16.93;14.47;;;19.70;99.90;;;;;;5067957;28;20462;-71
2021/09/04 11:30:56;;;;;;;19.10;15.87;;;19.70;99.90;;;;;;5072803;28;20471;-71
2021/09/04 11:33:22;;;;;;;19.70;15.33;;;19.40;99.90;;;;;;5075431;28;20407;-72
2021/09/04 11:35:48;;;;;;;17.70;14.77;;;19.30;99.90;;;;;;5082851;28;20539;-72
2021/09/04 11:38:14;;;;;;;19.67;14.73;;;19.30;99.90;;;;;;5073791;28;20217;-72
2021/09/04 11:40:43;;;;;;;17.67;15.50;;;19.30;99.90;;;;;;5088873;28;20490;-72
2021/09/04 11:43:08;;;;;;;14.93;13.20;;;19.30;99.90;;;;;;5092769;28;20420;-76
2021/09/04 11:45:34;;;;;;;18.60;16.60;;;19.30;99.90;;;;;;5092532;28;20440;-73
2021/09/04 11:48:06;;;;;;;15.17;13.60;;;19.30;99.90;;;;;;5073254;28;20219;-72
2021/09/04 11:50:32;;;;;;;16.60;14.45;;;19.40;99.90;;;;;;5057071;28;20437;-72
2021/09/04 11:52:59;;;;;;;15.40;13.80;;;19.40;99.90;;;;;;5074680;28;20700;-72
2021/09/04 11:55:29;;;;;;;16.80;13.80;;;19.40;99.90;;;;;;5058592;28;20400;-74
2021/09/04 11:58:01;;;;;;;16.67;13.73;;;19.50;99.90;;;;;;5063125;28;21313;-72
2021/09/04 12:00:35;;;;;;;15.93;13.77;;;19.60;99.90;;;;;;5054775;28;20472;-72
2021/09/04 12:03:05;;;;;;;13.37;12.07;;;19.70;99.90;;;;;;5070064;28;20535;-73
2021/09/04 12:05:33;;;;;;;14.60;12.53;;;19.80;99.90;;;;;;5068327;28;20418;-73
2021/09/04 12:08:13;;;;;;;16.77;13.60;;;19.80;99.90;;;;;;5046525;28;20424;-72
2021/09/04 12:10:41;;;;;;;15.17;13.03;;;19.90;99.90;;;;;;5052557;28;20586;-71
2021/09/04 12:13:16;;;;;;;15.27;13.67;;;19.90;99.90;;;;;;5070901;28;20450;-71
2021/09/04 12:15:43;;;;;;;14.37;12.90;;;19.90;99.90;;;;;;5073012;28;20469;-73
2021/09/04 12:18:09;;;;;;;16.90;12.83;;;19.90;99.90;;;;;;5072710;28;20439;-73
2021/09/04 12:20:40;;;;;;;15.73;13.90;;;19.90;99.90;;;;;;5060039;28;21080;-73
2021/09/04 12:23:15;;;;;;;16.27;14.50;;;19.80;99.90;;;;;;5046993;28;20294;-72
2021/09/04 12:25:41;;;;;;;15.70;13.63;;;19.70;99.90;;;;;;5051486;28;20502;-73
2021/09/04 12:28:10;;;;;;;18.87;14.67;;;19.70;99.90;;;;;;5073511;28;20473;-71